Time;durP1;ratioP1;P1;durP2;ratioP2;P2;SDS_P1;SDS_P2;PMS_P1;PMS_P2;Temp;Humidity;BMP_temperature;BMP_pressure;BME280_temperature;BME280_humidity;BME280_pressure;Samples;Min_cycle;Max_cycle;Signal;HPM_P1;HPM_P2
2022/01/08 00:00:31;;;;;;;2.13;0.70;;;3.00;2.70;;;;;;5061618;28;20052;-66
2022/01/08 00:02:59;;;;;;;1.95;0.80;;;3.00;2.40;;;;;;5056880;28;20683;-67
2022/01/08 00:05:27;;;;;;;2.20;0.93;;;3.00;3.10;;;;;;5061657;28;20080;-66
2022/01/08 00:07:56;;;;;;;1.88;0.90;;;2.90;2.90;;;;;;5064587;28;20055;-66
2022/01/08 00:10:24;;;;;;;2.50;0.90;;;2.90;2.90;;;;;;5058307;28;20080;-67
2022/01/08 00:12:55;;;;;;;1.58;1.00;;;2.90;3.00;;;;;;5061376;28;20127;-65
2022/01/08 00:15:24;;;;;;;3.47;1.20;;;2.90;3.20;;;;;;5062395;28;20518;-67
2022/01/08 00:17:52;;;;;;;5.13;1.30;;;2.80;3.10;;;;;;5067181;28;20135;-67
2022/01/08 00:20:24;;;;;;;2.22;1.00;;;2.80;3.00;;;;;;5063640;28;20047;-66
2022/01/08 00:22:54;;;;;;;2.78;1.20;;;2.90;3.40;;;;;;5066303;28;20056;-66
2022/01/08 00:25:24;;;;;;;3.03;1.50;;;2.80;3.60;;;;;;5067741;28;20040;-66
2022/01/08 00:27:52;;;;;;;2.60;1.35;;;2.80;3.90;;;;;;5066476;28;20095;-66
2022/01/08 00:30:20;;;;;;;2.65;1.35;;;2.80;3.50;;;;;;5062910;28;20044;-67
2022/01/08 00:32:49;;;;;;;2.63;1.20;;;2.80;2.80;;;;;;5065540;28;20072;-67
2022/01/08 00:35:17;;;;;;;2.33;1.38;;;2.80;3.40;;;;;;5066999;28;20225;-66
2022/01/08 00:37:45;;;;;;;3.03;1.15;;;2.80;3.70;;;;;;5067675;28;20079;-66
2022/01/08 00:40:14;;;;;;;1.58;1.20;;;2.80;3.30;;;;;;5062403;28;20060;-65
2022/01/08 00:42:43;;;;;;;1.88;1.33;;;2.90;3.30;;;;;;5052808;28;20037;-65
2022/01/08 00:45:11;;;;;;;4.63;1.33;;;2.80;3.30;;;;;;5048956;28;20131;-66
2022/01/08 00:47:39;;;;;;;2.15;1.30;;;2.80;3.50;;;;;;5048277;28;20052;-66
2022/01/08 00:50:10;;;;;;;6.95;1.55;;;2.80;3.70;;;;;;5043568;28;20049;-65
2022/01/08 00:52:39;;;;;;;2.75;1.65;;;2.70;4.30;;;;;;5046953;28;20099;-66
2022/01/08 00:55:08;;;;;;;4.82;1.50;;;2.70;4.50;;;;;;5047105;28;20041;-66
2022/01/08 00:57:37;;;;;;;3.97;1.73;;;2.70;4.70;;;;;;5050769;28;21121;-66
2022/01/08 01:00:07;;;;;;;3.05;1.70;;;2.60;4.90;;;;;;5057122;28;20099;-66
2022/01/08 01:02:35;;;;;;;4.57;1.80;;;2.60;5.10;;;;;;5067029;28;20412;-65
2022/01/08 01:05:05;;;;;;;3.03;1.70;;;2.60;5.00;;;;;;5060096;28;20068;-67
2022/01/08 01:07:34;;;;;;;2.55;1.83;;;2.60;5.50;;;;;;5049874;28;20079;-66
2022/01/08 01:10:04;;;;;;;3.67;2.17;;;2.60;5.50;;;;;;5036537;28;20045;-66
2022/01/08 01:12:32;;;;;;;2.58;1.70;;;2.60;5.20;;;;;;5053985;28;20309;-65
2022/01/08 01:15:14;;;;;;;2.92;2.08;;;2.50;5.60;;;;;;5063767;28;20056;-65
2022/01/08 01:17:42;;;;;;;;;;;2.60;5.20;;;;;;5065647;28;20051;-65
2022/01/08 01:20:12;;;;;;;3.25;2.00;;;2.60;4.70;;;;;;5064120;28;19924;-66
2022/01/08 01:22:50;;;;;;;2.03;1.70;;;2.70;4.90;;;;;;5063853;28;20584;-66
2022/01/08 01:25:23;;;;;;;3.28;1.92;;;2.70;3.90;;;;;;5064308;28;20083;-66
2022/01/08 01:28:03;;;;;;;3.50;1.98;;;2.70;3.80;;;;;;5065262;28;20121;-66
2022/01/08 01:41:46;;;;;;;3.80;2.40;;;2.70;4.30;;;;;;5046035;28;20049;-66
2022/01/08 01:47:02;;;;;;;3.38;2.22;;;2.70;4.40;;;;;;5049407;28;20052;-65
2022/01/08 01:49:32;;;;;;;3.13;2.00;;;2.70;4.90;;;;;;5045925;28;20177;-66
2022/01/08 01:52:03;;;;;;;2.95;1.90;;;2.70;4.20;;;;;;5048084;28;20131;-66
2022/01/08 01:54:34;;;;;;;6.00;2.35;;;2.70;4.30;;;;;;5052113;28;20099;-66
2022/01/08 01:57:03;;;;;;;4.97;2.40;;;2.70;4.30;;;;;;5059901;28;20064;-66
2022/01/08 01:59:33;;;;;;;2.92;1.80;;;2.70;3.90;;;;;;5054011;28;20889;-65
2022/01/08 02:02:05;;;;;;;2.78;2.08;;;2.70;4.10;;;;;;5042460;28;20131;-66
2022/01/08 02:04:35;;;;;;;2.53;1.73;;;2.70;4.20;;;;;;5046646;28;20033;-65
2022/01/08 02:07:04;;;;;;;3.50;1.63;;;2.70;4.50;;;;;;5046291;28;20122;-66
2022/01/08 02:09:37;;;;;;;2.75;1.60;;;2.80;4.80;;;;;;5026994;28;20087;-65
2022/01/08 02:12:06;;;;;;;3.65;1.98;;;2.80;3.90;;;;;;5038154;28;20148;-66
2022/01/08 02:14:36;;;;;;;3.10;1.60;;;2.80;4.40;;;;;;5050884;28;20037;-66
2022/01/08 02:17:06;;;;;;;3.30;1.70;;;2.80;3.90;;;;;;5050313;28;20503;-66
2022/01/08 02:19:35;;;;;;;3.22;1.77;;;2.90;3.70;;;;;;5066507;28;20516;-65
2022/01/08 02:22:06;;;;;;;2.13;1.42;;;2.90;3.60;;;;;;5064657;28;20051;-66
2022/01/08 02:24:37;;;;;;;2.53;1.45;;;3.00;3.50;;;;;;5064599;28;20040;-66
2022/01/08 02:27:06;;;;;;;3.25;1.70;;;2.90;3.90;;;;;;5043605;28;20049;-66
2022/01/08 02:29:35;;;;;;;3.88;1.67;;;2.90;4.00;;;;;;5061739;28;20527;-65
2022/01/08 02:32:07;;;;;;;2.05;1.55;;;3.00;4.00;;;;;;5061940;28;20049;-66
2022/01/08 02:34:39;;;;;;;3.22;1.63;;;3.00;3.90;;;;;;5045011;28;20136;-65
2022/01/08 02:37:09;;;;;;;3.63;1.50;;;3.00;4.00;;;;;;5063816;28;20055;-66
2022/01/08 02:39:43;;;;;;;3.80;1.70;;;3.00;4.10;;;;;;5060871;28;20132;-66
2022/01/08 02:42:16;;;;;;;3.05;1.70;;;3.00;4.30;;;;;;5062794;28;20098;-66
2022/01/08 02:44:45;;;;;;;2.42;1.73;;;3.00;5.20;;;;;;5063146;28;20037;-66
2022/01/08 02:47:20;;;;;;;3.58;1.92;;;3.00;5.60;;;;;;5065369;28;20065;-66
2022/01/08 02:49:52;;;;;;;2.92;1.85;;;2.90;6.60;;;;;;5061477;28;20052;-67
2022/01/08 02:52:21;;;;;;;5.05;2.20;;;3.00;7.10;;;;;;5063810;28;20123;-66
2022/01/08 02:54:55;;;;;;;3.03;1.92;;;2.90;7.60;;;;;;5045804;28;20636;-66
2022/01/08 02:57:23;;;;;;;2.92;1.75;;;2.90;7.60;;;;;;5047304;28;20041;-66
2022/01/08 02:59:52;;;;;;;2.47;1.50;;;2.90;7.20;;;;;;5052415;28;20086;-66
2022/01/08 03:02:20;;;;;;;5.70;1.80;;;3.00;7.20;;;;;;5063250;28;20045;-66
2022/01/08 03:04:49;;;;;;;2.92;1.48;;;3.00;7.50;;;;;;5048311;28;20508;-66
2022/01/08 03:07:17;;;;;;;3.50;1.42;;;3.00;7.40;;;;;;5046264;28;20466;-67
2022/01/08 03:09:56;;;;;;;4.38;1.52;;;3.00;7.20;;;;;;5041978;28;20041;-66
2022/01/08 03:12:27;;;;;;;2.95;1.40;;;3.00;7.60;;;;;;5034175;28;20076;-66
2022/01/08 03:14:58;;;;;;;6.13;2.00;;;3.10;7.40;;;;;;5040976;28;20138;-67
2022/01/08 03:17:27;;;;;;;3.55;1.95;;;3.10;6.70;;;;;;5061098;28;20054;-66
2022/01/08 03:20:02;;;;;;;4.97;1.98;;;3.20;6.60;;;;;;5043464;28;20076;-66
2022/01/08 03:22:30;;;;;;;2.90;1.67;;;3.20;6.90;;;;;;5054588;28;20155;-66
2022/01/08 03:25:01;;;;;;;2.35;1.23;;;3.30;7.40;;;;;;5058077;28;20450;-66
2022/01/08 03:27:32;;;;;;;2.20;1.42;;;3.40;7.80;;;;;;5058151;28;20060;-65
2022/01/08 03:30:04;;;;;;;1.55;1.23;;;3.50;8.00;;;;;;5047705;28;20059;-66
2022/01/08 03:32:32;;;;;;;1.48;1.17;;;3.50;8.00;;;;;;5021972;28;20049;-66
2022/01/08 03:35:02;;;;;;;1.88;1.52;;;3.50;8.90;;;;;;5040072;28;20483;-66
2022/01/08 03:37:30;;;;;;;1.85;1.35;;;3.50;10.10;;;;;;5041059;28;20045;-67
2022/01/08 03:40:00;;;;;;;3.35;1.67;;;3.50;11.60;;;;;;5036485;28;20044;-66
2022/01/08 03:42:31;;;;;;;1.90;1.23;;;3.40;13.20;;;;;;5035589;28;20512;-67
2022/01/08 03:44:59;;;;;;;2.20;1.50;;;3.40;14.40;;;;;;5036882;28;20053;-65
2022/01/08 03:47:52;;;;;;;1.85;1.25;;;3.30;15.00;;;;;;5023702;28;20485;-66
2022/01/08 03:50:20;;;;;;;2.22;1.63;;;3.30;16.20;;;;;;5038178;28;20087;-66
2022/01/08 03:52:50;;;;;;;2.28;1.75;;;3.20;18.10;;;;;;5060471;28;20040;-67
2022/01/08 03:55:19;;;;;;;2.97;1.70;;;3.10;19.40;;;;;;5033624;28;20392;-66
2022/01/08 03:57:47;;;;;;;1.60;1.33;;;3.10;21.80;;;;;;5043866;28;20053;-66
2022/01/08 04:00:16;;;;;;;3.22;1.42;;;3.10;21.80;;;;;;5041748;28;20045;-66
2022/01/08 04:02:44;;;;;;;2.45;1.80;;;3.10;21.90;;;;;;5043162;28;20052;-65
2022/01/08 04:05:12;;;;;;;2.90;1.92;;;3.00;23.00;;;;;;5041803;28;20115;-66
2022/01/08 04:07:40;;;;;;;5.13;1.80;;;3.00;23.30;;;;;;5042469;28;20055;-65
2022/01/08 04:10:09;;;;;;;4.68;2.00;;;3.00;23.80;;;;;;5040646;28;20045;-66
2022/01/08 04:12:42;;;;;;;2.80;1.77;;;2.90;24.20;;;;;;5041468;28;20101;-66
2022/01/08 04:15:32;;;;;;;2.85;1.90;;;2.90;25.00;;;;;;5035773;28;20039;-66
2022/01/08 04:18:00;;;;;;;3.40;1.83;;;2.80;25.00;;;;;;5053346;28;20052;-66
2022/01/08 04:20:36;;;;;;;3.38;1.88;;;2.80;26.60;;;;;;5056459;28;20056;-67
2022/01/08 04:23:04;;;;;;;3.60;2.00;;;2.80;26.70;;;;;;5040886;28;20102;-66
2022/01/08 04:25:32;;;;;;;3.00;1.80;;;2.90;26.60;;;;;;5062824;28;20040;-66
2022/01/08 04:28:02;;;;;;;2.47;1.65;;;2.90;25.80;;;;;;5048881;28;20051;-65
2022/01/08 04:30:30;;;;;;;2.20;1.85;;;2.90;25.80;;;;;;5051130;28;21021;-66
2022/01/08 04:32:58;;;;;;;3.30;2.10;;;3.00;25.20;;;;;;5059021;28;20063;-66
2022/01/08 04:35:27;;;;;;;3.05;2.10;;;3.00;25.10;;;;;;5059326;28;20091;-65
2022/01/08 04:37:55;;;;;;;2.78;1.80;;;3.10;23.80;;;;;;5065544;28;20053;-67
2022/01/08 04:40:23;;;;;;;3.10;1.92;;;3.10;24.00;;;;;;5069178;28;20564;-64
2022/01/08 04:42:51;;;;;;;1.85;1.45;;;3.20;24.10;;;;;;5066870;28;20090;-66
2022/01/08 04:45:22;;;;;;;3.15;2.13;;;3.20;24.00;;;;;;5062027;28;20127;-66
2022/01/08 04:47:50;;;;;;;2.92;2.17;;;3.20;23.90;;;;;;5052971;28;20139;-65
2022/01/08 04:50:18;;;;;;;3.60;2.03;;;3.10;24.50;;;;;;5045543;28;20121;-64
2022/01/08 04:52:46;;;;;;;2.70;1.80;;;3.10;25.20;;;;;;5045118;28;20381;-66
2022/01/08 04:55:14;;;;;;;3.03;1.90;;;3.10;25.80;;;;;;5045324;28;20119;-65
2022/01/08 04:57:42;;;;;;;2.75;1.88;;;3.00;26.90;;;;;;5049695;28;20120;-66
2022/01/08 05:00:11;;;;;;;3.42;1.80;;;2.90;28.30;;;;;;5043972;28;20049;-64
2022/01/08 05:02:41;;;;;;;3.08;1.83;;;2.90;29.20;;;;;;5046440;28;20033;-65
2022/01/08 05:05:10;;;;;;;4.43;2.20;;;2.90;30.60;;;;;;5046300;28;20045;-65
2022/01/08 05:07:38;;;;;;;2.72;1.80;;;2.80;30.80;;;;;;5045874;28;20041;-64
2022/01/08 05:10:08;;;;;;;1.90;1.25;;;2.70;32.00;;;;;;5043182;28;20041;-65
2022/01/08 05:12:39;;;;;;;1.90;1.30;;;2.50;32.30;;;;;;5046077;28;20229;-65
2022/01/08 05:15:08;;;;;;;3.40;1.50;;;2.40;34.40;;;;;;5044816;28;20502;-65
2022/01/08 05:17:39;;;;;;;2.28;1.33;;;2.20;35.90;;;;;;5046323;28;20057;-65
2022/01/08 05:20:11;;;;;;;2.55;1.50;;;2.10;37.90;;;;;;5042841;28;20613;-63
2022/01/08 05:22:50;;;;;;;2.13;1.40;;;2.10;38.50;;;;;;5064877;28;20047;-65
2022/01/08 05:25:20;;;;;;;3.33;1.73;;;2.20;39.90;;;;;;5049011;28;20069;-64
2022/01/08 05:27:50;;;;;;;1.48;1.20;;;2.20;39.90;;;;;;5049687;28;20124;-65
2022/01/08 05:30:20;;;;;;;3.10;1.27;;;2.10;39.80;;;;;;5045356;28;20045;-65
2022/01/08 05:32:51;;;;;;;1.35;1.13;;;2.20;39.90;;;;;;5046410;28;20065;-65
2022/01/08 05:35:24;;;;;;;2.38;1.20;;;2.10;40.70;;;;;;5048636;28;20048;-64
2022/01/08 05:37:54;;;;;;;1.83;1.00;;;2.10;40.30;;;;;;5033536;28;20048;-64
2022/01/08 05:40:22;;;;;;;1.33;0.80;;;2.10;40.90;;;;;;5067187;28;20048;-65
2022/01/08 05:42:51;;;;;;;3.05;0.90;;;2.10;40.80;;;;;;5063337;28;20044;-65
2022/01/08 05:45:19;;;;;;;1.20;0.70;;;2.10;40.50;;;;;;5054047;28;20155;-64
2022/01/08 05:47:47;;;;;;;1.08;0.57;;;2.10;41.10;;;;;;5042704;28;20140;-64
2022/01/08 05:50:16;;;;;;;1.50;0.70;;;2.20;41.40;;;;;;5044766;28;20067;-66
2022/01/08 05:52:48;;;;;;;1.02;0.70;;;2.10;41.50;;;;;;5046255;28;20029;-64
2022/01/08 05:55:17;;;;;;;1.30;0.73;;;2.20;41.30;;;;;;5049619;28;20052;-65
2022/01/08 05:57:46;;;;;;;1.35;0.70;;;2.20;39.90;;;;;;5046975;28;20094;-64
2022/01/08 06:00:14;;;;;;;1.20;0.90;;;2.20;40.50;;;;;;5048742;28;20492;-66
2022/01/08 06:02:42;;;;;;;1.83;1.10;;;2.30;40.00;;;;;;5065003;28;20091;-64
2022/01/08 06:05:11;;;;;;;1.65;1.00;;;2.30;39.90;;;;;;5067938;28;20143;-65
2022/01/08 06:07:39;;;;;;;1.08;0.90;;;2.30;37.60;;;;;;5067859;28;20040;-64
2022/01/08 06:10:11;;;;;;;0.80;0.80;;;2.20;36.20;;;;;;5065497;28;20072;-65
2022/01/08 06:12:42;;;;;;;0.70;0.70;;;2.20;36.60;;;;;;5063138;28;20044;-65
2022/01/08 06:15:10;;;;;;;0.63;0.60;;;2.10;33.40;;;;;;5069302;28;20047;-65
2022/01/08 06:17:41;;;;;;;0.80;0.55;;;2.10;33.20;;;;;;5067215;28;20041;-65
2022/01/08 06:20:10;;;;;;;0.85;0.70;;;1.90;31.30;;;;;;5064905;28;20087;-65
2022/01/08 06:22:39;;;;;;;1.60;0.80;;;1.90;32.40;;;;;;5063646;28;20072;-66
2022/01/08 06:25:08;;;;;;;1.33;0.70;;;1.90;34.20;;;;;;5069829;28;20059;-65
2022/01/08 06:27:40;;;;;;;1.10;0.77;;;1.80;35.20;;;;;;5069633;28;20044;-67
2022/01/08 06:30:09;;;;;;;0.90;0.70;;;1.80;36.90;;;;;;5064749;28;20094;-66
2022/01/08 06:32:37;;;;;;;1.10;0.80;;;1.70;37.90;;;;;;5061331;28;20064;-66
2022/01/08 06:35:06;;;;;;;0.80;0.75;;;1.70;39.40;;;;;;5039910;28;20048;-66
2022/01/08 06:37:33;;;;;;;1.05;0.93;;;1.70;39.50;;;;;;5053079;28;20076;-66
2022/01/08 06:40:01;;;;;;;1.38;0.93;;;1.70;39.40;;;;;;5045430;28;20045;-64
2022/01/08 06:42:29;;;;;;;1.17;0.88;;;1.70;36.00;;;;;;5049398;28;20057;-65
2022/01/08 06:44:59;;;;;;;1.38;0.88;;;1.70;35.30;;;;;;5050260;28;20123;-66
2022/01/08 06:47:27;;;;;;;1.35;1.00;;;1.80;32.20;;;;;;5049827;28;20485;-66
2022/01/08 06:49:55;;;;;;;2.13;0.70;;;1.80;32.70;;;;;;5044036;28;20045;-66
2022/01/08 06:52:24;;;;;;;0.85;0.70;;;1.80;33.00;;;;;;5048404;28;20151;-66
2022/01/08 06:54:53;;;;;;;1.63;1.20;;;1.80;31.20;;;;;;5045429;28;20515;-66
2022/01/08 06:57:24;;;;;;;1.40;1.10;;;1.80;32.80;;;;;;5052732;28;20402;-66
2022/01/08 06:59:52;;;;;;;2.28;0.80;;;1.80;31.60;;;;;;5045560;28;20051;-67
2022/01/08 07:02:22;;;;;;;1.50;1.00;;;1.90;30.50;;;;;;5045925;28;20489;-66
2022/01/08 07:04:50;;;;;;;1.35;1.13;;;1.80;31.20;;;;;;5047622;28;20068;-67
2022/01/08 07:07:18;;;;;;;1.08;0.88;;;1.80;31.20;;;;;;5046989;28;20132;-67
2022/01/08 07:09:49;;;;;;;1.75;1.20;;;1.80;30.00;;;;;;5044321;28;20063;-67
2022/01/08 07:12:21;;;;;;;2.88;1.15;;;1.80;31.80;;;;;;5039432;28;20044;-66
2022/01/08 07:14:50;;;;;;;3.35;1.30;;;1.80;31.20;;;;;;5045518;28;20123;-67
2022/01/08 07:17:18;;;;;;;3.08;1.63;;;1.80;31.20;;;;;;5044584;28;20561;-67
2022/01/08 07:19:48;;;;;;;4.60;1.70;;;1.80;31.60;;;;;;5062000;28;20131;-67
2022/01/08 07:22:16;;;;;;;1.48;1.15;;;1.70;29.00;;;;;;5046227;28;20542;-66
2022/01/08 07:24:44;;;;;;;2.72;1.58;;;1.70;29.10;;;;;;5046301;28;20512;-66
2022/01/08 07:27:12;;;;;;;1.83;1.45;;;1.80;27.60;;;;;;5044850;28;20500;-66
2022/01/08 07:29:41;;;;;;;2.65;1.35;;;1.80;25.50;;;;;;5043146;28;20080;-65
2022/01/08 07:32:09;;;;;;;2.05;1.27;;;1.80;25.60;;;;;;5043456;28;20053;-66
2022/01/08 07:34:37;;;;;;;3.63;1.42;;;1.70;26.20;;;;;;5044152;28;20049;-66
2022/01/08 07:37:07;;;;;;;3.15;1.60;;;1.70;27.30;;;;;;5048345;28;20135;-66
2022/01/08 07:39:35;;;;;;;2.35;1.52;;;1.70;29.00;;;;;;5049227;28;20124;-66
2022/01/08 07:42:03;;;;;;;4.07;2.30;;;1.70;30.00;;;;;;5062664;28;20054;-66
2022/01/08 07:44:31;;;;;;;4.03;2.28;;;1.70;33.60;;;;;;5061066;28;20167;-66
2022/01/08 07:47:00;;;;;;;4.25;2.78;;;1.60;35.60;;;;;;5065379;28;20159;-67
2022/01/08 07:49:28;;;;;;;4.57;2.88;;;1.60;37.10;;;;;;5043559;28;20045;-65
2022/01/08 07:51:56;;;;;;;4.95;2.92;;;1.50;39.30;;;;;;5044656;28;20049;-66
2022/01/08 07:54:25;;;;;;;5.15;3.47;;;1.40;40.30;;;;;;5046270;28;20506;-66
2022/01/08 07:56:54;;;;;;;8.48;3.22;;;1.40;41.20;;;;;;5072960;28;20041;-66
2022/01/08 07:59:22;;;;;;;6.25;3.72;;;1.40;41.70;;;;;;5044605;28;20053;-67
2022/01/08 08:01:50;;;;;;;5.80;3.05;;;1.50;42.00;;;;;;5044938;28;20187;-66
2022/01/08 08:04:18;;;;;;;4.47;2.53;;;1.60;40.30;;;;;;5043107;28;20048;-65
2022/01/08 08:06:47;;;;;;;5.30;2.85;;;1.80;35.40;;;;;;5044714;28;20516;-67
2022/01/08 08:09:18;;;;;;;4.82;3.13;;;1.90;35.80;;;;;;5044264;28;20054;-67
2022/01/08 08:11:48;;;;;;;5.10;2.63;;;1.90;33.70;;;;;;5043839;28;20048;-65
2022/01/08 08:14:16;;;;;;;3.50;2.65;;;1.90;32.50;;;;;;5072736;28;20123;-67
2022/01/08 08:16:46;;;;;;;3.05;2.45;;;2.00;31.40;;;;;;5066085;28;20106;-66
2022/01/08 08:19:14;;;;;;;3.38;2.25;;;2.00;31.60;;;;;;5046178;28;20128;-67
2022/01/08 08:21:43;;;;;;;4.55;2.30;;;2.00;31.40;;;;;;5046643;28;20033;-66
2022/01/08 08:24:13;;;;;;;4.85;3.00;;;2.00;31.40;;;;;;5041574;28;20483;-67
2022/01/08 08:26:41;;;;;;;5.57;2.45;;;2.00;31.40;;;;;;5032138;28;20522;-66
2022/01/08 08:29:11;;;;;;;3.70;2.35;;;2.00;31.30;;;;;;5036340;28;20068;-67
2022/01/08 08:31:41;;;;;;;3.78;2.35;;;2.10;30.70;;;;;;5040479;28;20120;-66
2022/01/08 08:34:09;;;;;;;3.65;2.15;;;2.10;27.30;;;;;;5020327;28;20073;-66
2022/01/08 08:36:37;;;;;;;3.42;1.95;;;2.10;27.00;;;;;;5046709;28;20072;-66
2022/01/08 08:39:06;;;;;;;7.53;2.05;;;2.10;25.80;;;;;;5049581;28;20051;-67
2022/01/08 08:41:34;;;;;;;3.33;1.95;;;2.10;24.60;;;;;;5051110;28;20090;-67
2022/01/08 08:44:05;;;;;;;3.67;1.90;;;2.20;23.60;;;;;;5068038;28;20056;-66
2022/01/08 08:46:34;;;;;;;2.88;1.63;;;2.30;23.90;;;;;;5067360;28;20052;-68
2022/01/08 08:49:02;;;;;;;4.90;2.33;;;2.20;22.80;;;;;;5068714;28;20135;-66
2022/01/08 08:51:30;;;;;;;3.22;2.08;;;2.30;23.50;;;;;;5064583;28;20056;-67
2022/01/08 08:54:02;;;;;;;4.40;1.98;;;2.30;22.30;;;;;;5066305;28;20496;-66
2022/01/08 08:56:32;;;;;;;5.55;2.38;;;2.40;22.00;;;;;;5070064;28;20048;-67
2022/01/08 08:59:00;;;;;;;5.07;2.47;;;2.40;21.10;;;;;;5067840;28;20205;-66
2022/01/08 09:01:28;;;;;;;2.30;1.90;;;2.30;20.60;;;;;;5064280;28;20123;-67
2022/01/08 09:03:57;;;;;;;5.68;1.88;;;2.40;20.40;;;;;;5068186;28;20128;-66
2022/01/08 09:06:27;;;;;;;3.45;1.80;;;2.30;19.70;;;;;;5071487;28;20136;-66
2022/01/08 09:08:56;;;;;;;3.85;2.13;;;2.30;19.60;;;;;;5071368;28;20040;-66
2022/01/08 09:11:24;;;;;;;6.13;2.17;;;2.40;18.80;;;;;;5062780;28;20567;-66
2022/01/08 09:13:54;;;;;;;3.63;1.92;;;2.50;18.90;;;;;;5065270;28;20507;-67
2022/01/08 09:16:22;;;;;;;4.95;1.95;;;2.50;19.00;;;;;;5066627;28;20052;-68
2022/01/08 09:18:51;;;;;;;4.90;2.45;;;2.60;18.10;;;;;;5068111;28;20051;-66
2022/01/08 09:21:20;;;;;;;5.53;2.55;;;2.70;17.80;;;;;;5063751;28;20122;-67
2022/01/08 09:23:48;;;;;;;5.78;2.45;;;2.50;15.90;;;;;;5065363;28;20057;-66
2022/01/08 09:26:17;;;;;;;4.38;2.40;;;2.60;16.50;;;;;;5067976;28;20576;-66
2022/01/08 09:28:47;;;;;;;4.65;2.50;;;2.50;15.90;;;;;;5066949;28;20070;-67
2022/01/08 09:31:17;;;;;;;8.25;2.50;;;2.60;15.60;;;;;;5063233;28;20052;-68
2022/01/08 09:33:45;;;;;;;9.93;3.00;;;2.60;14.60;;;;;;5065470;28;20159;-67
2022/01/08 09:36:14;;;;;;;4.50;2.70;;;2.70;13.80;;;;;;5066797;28;20080;-67
2022/01/08 09:38:44;;;;;;;4.80;2.78;;;2.70;14.60;;;;;;5066395;28;20086;-67
2022/01/08 09:41:12;;;;;;;4.47;2.40;;;2.60;13.30;;;;;;5062927;28;20040;-67
2022/01/08 09:43:40;;;;;;;4.50;2.83;;;2.60;13.10;;;;;;5067544;28;20128;-67
2022/01/08 09:46:08;;;;;;;5.07;3.13;;;2.70;13.50;;;;;;5066746;28;20138;-67
2022/01/08 09:48:36;;;;;;;6.72;3.00;;;2.70;11.60;;;;;;5066685;28;20049;-67
2022/01/08 09:51:04;;;;;;;10.82;3.45;;;2.70;10.40;;;;;;5062895;28;20079;-67
2022/01/08 09:53:33;;;;;;;4.97;2.13;;;2.80;11.20;;;;;;5066185;28;20123;-67
2022/01/08 09:56:02;;;;;;;6.43;2.92;;;3.00;10.90;;;;;;5063421;28;20140;-66
2022/01/08 09:58:33;;;;;;;4.60;2.60;;;3.00;10.00;;;;;;5071788;28;20052;-67
2022/01/08 10:01:03;;;;;;;5.40;2.08;;;3.00;8.40;;;;;;5056459;28;20106;-67
2022/01/08 10:03:32;;;;;;;6.43;2.22;;;3.10;8.10;;;;;;5062346;28;20667;-68
2022/01/08 10:06:01;;;;;;;7.13;2.17;;;3.10;7.80;;;;;;5066028;28;20504;-67
2022/01/08 10:08:44;;;;;;;5.78;2.47;;;3.20;7.80;;;;;;5066573;28;21120;-67
2022/01/08 10:11:15;;;;;;;5.45;2.40;;;3.20;7.80;;;;;;5061855;28;20052;-66
2022/01/08 10:13:45;;;;;;;8.18;2.80;;;3.10;6.50;;;;;;5063939;28;20041;-67
2022/01/08 10:19:04;;;;;;;5.18;2.17;;;3.10;6.40;;;;;;5066040;28;20037;-66
2022/01/08 10:21:34;;;;;;;8.15;2.25;;;3.10;5.80;;;;;;5062211;28;20127;-66
2022/01/08 10:24:04;;;;;;;5.10;2.33;;;3.00;5.30;;;;;;5064719;28;20052;-66
2022/01/08 10:26:36;;;;;;;4.78;2.05;;;3.00;5.20;;;;;;5065802;28;20040;-65
2022/01/08 10:29:07;;;;;;;6.65;2.45;;;3.20;5.60;;;;;;5067223;28;20056;-67
2022/01/08 10:31:39;;;;;;;6.88;2.53;;;3.40;4.80;;;;;;5062603;28;20036;-67
2022/01/08 10:34:08;;;;;;;6.85;2.40;;;3.40;4.10;;;;;;5064366;28;20064;-67
2022/01/08 10:36:38;;;;;;;6.95;1.90;;;3.40;4.30;;;;;;5064906;28;20078;-67
2022/01/08 10:39:08;;;;;;;2.13;1.83;;;3.40;3.10;;;;;;5065115;28;20071;-66
2022/01/08 10:41:42;;;;;;;6.75;2.30;;;3.40;4.30;;;;;;5063594;28;20140;-67
2022/01/08 10:44:15;;;;;;;6.22;2.00;;;3.40;2.80;;;;;;5057760;28;20135;-67
2022/01/08 10:46:46;;;;;;;4.25;2.50;;;3.60;2.30;;;;;;5066702;28;20051;-67
2022/01/08 10:49:17;;;;;;;4.63;2.08;;;3.60;1.20;;;;;;5066165;28;20518;-66
2022/01/08 10:51:45;;;;;;;5.68;2.90;;;3.60;1.90;;;;;;5047714;28;20160;-68
2022/01/08 10:54:14;;;;;;;6.60;2.70;;;3.40;1.00;;;;;;5050674;28;20132;-66
2022/01/08 10:56:45;;;;;;;6.60;2.92;;;3.70;1.00;;;;;;5057159;28;20127;-66
2022/01/08 10:59:16;;;;;;;5.45;2.65;;;3.70;1.00;;;;;;5049737;28;20037;-68
2022/01/08 11:01:50;;;;;;;6.40;2.67;;;3.70;1.00;;;;;;5067404;28;20072;-67
2022/01/08 11:04:20;;;;;;;;;;;3.50;1.00;;;;;;5055759;28;20250;-68
2022/01/08 11:06:54;;;;;;;4.72;2.17;;;3.50;1.00;;;;;;5064165;28;20041;-67
2022/01/08 11:09:23;;;;;;;5.13;1.63;;;3.60;1.00;;;;;;5057598;28;20132;-67
2022/01/08 11:11:54;;;;;;;9.88;1.60;;;3.60;1.00;;;;;;5045172;28;20060;-67
2022/01/08 11:14:47;;;;;;;5.40;2.15;;;3.50;1.00;;;;;;5045085;28;20591;-67
2022/01/08 11:17:18;;;;;;;2.92;1.40;;;3.60;1.00;;;;;;5049852;28;20119;-67
2022/01/08 11:19:48;;;;;;;6.53;2.03;;;3.60;1.00;;;;;;5042472;28;20155;-66
2022/01/08 11:22:19;;;;;;;11.27;3.40;;;3.70;1.00;;;;;;5046962;28;20128;-67
2022/01/08 11:24:56;;;;;;;3.50;1.65;;;3.70;1.00;;;;;;5045065;28;20041;-67
2022/01/08 11:27:29;;;;;;;3.92;1.88;;;3.90;1.00;;;;;;5044700;28;20077;-67
2022/01/08 11:30:04;;;;;;;5.85;1.95;;;3.70;1.00;;;;;;5042187;28;20057;-67
2022/01/08 11:32:35;;;;;;;3.92;1.65;;;3.70;1.00;;;;;;5042843;28;20412;-67
2022/01/08 11:35:25;;;;;;;4.85;2.28;;;3.70;1.00;;;;;;5043558;28;20390;-67
2022/01/08 11:37:56;;;;;;;3.30;1.70;;;3.70;1.00;;;;;;5044327;28;20068;-68
2022/01/08 11:40:26;;;;;;;3.72;1.42;;;3.80;1.00;;;;;;5063402;28;20054;-67
2022/01/08 11:42:59;;;;;;;6.13;1.98;;;3.80;1.00;;;;;;5058760;28;20052;-68
2022/01/08 11:45:30;;;;;;;5.45;1.92;;;3.80;1.00;;;;;;5059140;28;20068;-68
2022/01/08 11:48:02;;;;;;;4.03;1.55;;;3.80;1.00;;;;;;5065278;28;20127;-66
2022/01/08 11:50:33;;;;;;;8.02;1.88;;;3.80;1.00;;;;;;5060324;28;20047;-67
2022/01/08 11:53:15;;;;;;;6.95;1.33;;;3.80;1.00;;;;;;5058394;28;20637;-67
2022/01/08 11:55:44;;;;;;;5.65;1.63;;;3.90;1.00;;;;;;5062089;28;20091;-67
2022/01/08 11:58:23;;;;;;;5.95;1.90;;;3.90;1.00;;;;;;5064906;28;20036;-68
2022/01/08 12:00:55;;;;;;;3.72;1.20;;;3.90;1.00;;;;;;5060019;28;20132;-67
2022/01/08 12:03:29;;;;;;;5.00;1.50;;;4.00;1.00;;;;;;5058661;28;20055;-67
2022/01/08 12:05:58;;;;;;;24.38;1.52;;;4.00;1.00;;;;;;5063977;28;20530;-67
2022/01/08 12:08:57;;;;;;;5.30;1.27;;;4.10;1.00;;;;;;5063680;28;20040;-66
2022/01/08 12:11:26;;;;;;;3.75;1.50;;;4.20;1.00;;;;;;5061073;28;20563;-68
2022/01/08 12:14:08;;;;;;;7.47;1.80;;;4.20;1.00;;;;;;5048744;28;20048;-67
2022/01/08 12:16:39;;;;;;;4.70;1.48;;;4.40;1.00;;;;;;5064483;28;20048;-68
2022/01/08 12:19:29;;;;;;;5.78;1.50;;;4.50;1.00;;;;;;5069901;28;20044;-67
2022/01/08 12:21:59;;;;;;;4.68;1.50;;;4.60;1.00;;;;;;5063697;28;20033;-67
2022/01/08 12:24:38;;;;;;;3.28;1.50;;;4.50;1.00;;;;;;5049197;28;20074;-68
2022/01/08 12:27:40;;;;;;;2.83;1.60;;;4.60;1.00;;;;;;5081060;28;20055;-67
2022/01/08 12:30:39;;;;;;;7.00;1.60;;;4.50;1.00;;;;;;5078288;28;20450;-66
2022/01/08 12:33:17;;;;;;;4.38;1.63;;;4.70;1.00;;;;;;5045230;28;20404;-68
2022/01/08 12:35:54;;;;;;;5.30;1.50;;;4.80;1.00;;;;;;5052282;28;20118;-67
2022/01/08 12:38:25;;;;;;;3.88;1.55;;;4.70;1.00;;;;;;5067402;28;20048;-68
2022/01/08 12:40:55;;;;;;;2.55;1.30;;;4.70;1.00;;;;;;5064810;28;20067;-67
2022/01/08 12:43:31;;;;;;;8.73;1.83;;;4.80;1.00;;;;;;5066217;28;20044;-67
2022/01/08 12:46:22;;;;;;;4.50;1.55;;;4.60;1.00;;;;;;5066241;28;20047;-67
2022/01/08 12:49:10;;;;;;;3.88;1.45;;;4.60;1.00;;;;;;5066935;28;20036;-67
2022/01/08 12:51:43;;;;;;;2.38;1.10;;;4.40;1.00;;;;;;5062811;28;20044;-66
2022/01/08 12:54:13;;;;;;;5.15;1.40;;;4.40;1.00;;;;;;5064362;28;20055;-67
2022/01/08 12:56:48;;;;;;;3.78;1.40;;;4.40;1.00;;;;;;5064838;28;20064;-67
2022/01/08 12:59:16;;;;;;;3.28;1.73;;;4.10;1.00;;;;;;5063419;28;20128;-67
2022/01/08 13:01:48;;;;;;;11.05;4.82;;;4.10;1.00;;;;;;5063837;28;20048;-67
2022/01/08 13:04:19;;;;;;;5.88;1.90;;;4.20;1.00;;;;;;5046580;28;20075;-68
2022/01/08 13:07:07;;;;;;;3.35;1.40;;;4.20;1.00;;;;;;5065459;28;20064;-67
2022/01/08 13:09:39;;;;;;;2.58;1.70;;;4.20;1.00;;;;;;5064267;28;20048;-66
2022/01/08 13:12:09;;;;;;;3.22;1.17;;;4.10;1.00;;;;;;5067256;28;20063;-67
2022/01/08 13:14:37;;;;;;;1.90;1.10;;;4.00;1.00;;;;;;5060990;28;20055;-67
2022/01/08 13:17:08;;;;;;;2.72;1.08;;;4.00;1.00;;;;;;5046800;28;20055;-66
2022/01/08 13:19:37;;;;;;;4.50;1.45;;;3.90;1.00;;;;;;5064063;28;20496;-67
2022/01/08 13:22:07;;;;;;;6.00;2.35;;;3.90;1.00;;;;;;5066858;28;20098;-67
2022/01/08 13:24:42;;;;;;;3.80;1.30;;;3.80;1.00;;;;;;5065416;28;20068;-66
2022/01/08 13:27:18;;;;;;;2.65;1.13;;;3.90;1.00;;;;;;5070139;28;20062;-67
2022/01/08 13:29:47;;;;;;;2.10;1.27;;;3.80;1.00;;;;;;5067013;28;20060;-66
2022/01/08 13:32:19;;;;;;;2.28;1.20;;;3.80;1.00;;;;;;5064157;28;20068;-66
2022/01/08 13:34:50;;;;;;;3.45;1.23;;;3.80;1.00;;;;;;5068345;28;20048;-67
2022/01/08 13:37:20;;;;;;;2.35;1.30;;;3.70;1.00;;;;;;5065689;28;20127;-66